createdAt,value
2019-01-25T00:00:43.634Z,28.73
2019-01-25T00:03:15.862Z,27.23
2019-01-25T00:05:47.852Z,28.03
2019-01-25T00:08:19.899Z,29.17
2019-01-25T00:10:52.112Z,26.83
2019-01-25T00:13:24.272Z,28.67
2019-01-25T00:15:56.232Z,28.77
2019-01-25T00:18:29.440Z,29.37
2019-01-25T00:21:01.560Z,26.73
2019-01-25T00:23:33.495Z,28.37
2019-01-25T00:26:06.167Z,28.03
2019-01-25T00:28:38.175Z,29.50
2019-01-25T00:31:10.210Z,28.90
2019-01-25T00:33:42.296Z,29.03
2019-01-25T00:36:14.438Z,29.33
2019-01-25T00:38:46.411Z,31.17
2019-01-25T00:41:19.498Z,30.10
2019-01-25T00:43:51.629Z,26.77
2019-01-25T00:46:23.681Z,29.60
2019-01-25T00:48:56.613Z,31.93
2019-01-25T00:51:28.592Z,28.57
2019-01-25T00:54:00.492Z,29.50
2019-01-25T00:56:32.467Z,28.73
2019-01-25T00:59:05.026Z,27.10
2019-01-25T01:01:36.960Z,28.60
2019-01-25T01:04:09.037Z,27.77
2019-01-25T01:06:41.198Z,29.10
2019-01-25T01:09:13.900Z,28.27
2019-01-25T01:11:45.874Z,30.17
2019-01-25T01:14:17.930Z,29.60
2019-01-25T01:16:49.954Z,30.63
2019-01-25T01:19:21.991Z,31.73
2019-01-25T01:21:54.013Z,30.30
2019-01-25T01:24:25.966Z,30.07
2019-01-25T01:26:58.074Z,29.57
2019-01-25T01:29:29.948Z,32.10
2019-01-25T01:32:01.930Z,30.93
2019-01-25T01:34:33.969Z,31.27
2019-01-25T01:37:06.251Z,29.23
2019-01-25T01:39:38.285Z,29.57
2019-01-25T01:42:10.386Z,30.80
2019-01-25T01:44:42.371Z,30.00
2019-01-25T01:47:14.541Z,29.13
2019-01-25T01:49:46.635Z,30.83
2019-01-25T01:52:18.642Z,31.67
2019-01-25T01:54:50.609Z,30.53
2019-01-25T01:57:22.538Z,29.83
2019-01-25T01:59:54.447Z,31.53
2019-01-25T02:02:26.595Z,30.20
2019-01-25T02:04:58.555Z,30.03
2019-01-25T02:07:30.617Z,32.53
2019-01-25T02:10:02.651Z,29.93
2019-01-25T02:12:34.540Z,29.63
2019-01-25T02:15:08.663Z,27.23
2019-01-25T02:17:40.712Z,28.67
2019-01-25T02:20:17.399Z,28.00
2019-01-25T02:22:49.663Z,30.33
2019-01-25T02:25:21.643Z,30.57
2019-01-25T02:27:53.824Z,30.93
2019-01-25T02:30:27.775Z,30.03
2019-01-25T02:32:59.886Z,27.97
2019-01-25T02:35:31.846Z,31.53
2019-01-25T02:38:03.723Z,29.63
2019-01-25T02:40:38.808Z,30.77
2019-01-25T02:43:09.691Z,33.00
2019-01-25T02:45:41.722Z,31.50
2019-01-25T02:48:21.462Z,29.40
2019-01-25T02:50:53.387Z,31.17
2019-01-25T02:53:25.264Z,30.80
2019-01-25T02:55:57.153Z,33.00
2019-01-25T02:58:29.021Z,33.10
2019-01-25T03:01:00.961Z,32.40
2019-01-25T03:03:32.904Z,30.77
2019-01-25T03:06:05.330Z,29.67
2019-01-25T03:08:37.191Z,29.20
2019-01-25T03:11:08.991Z,32.50
2019-01-25T03:13:40.811Z,30.23
2019-01-25T03:16:13.896Z,29.37
2019-01-25T03:18:45.714Z,32.83
2019-01-25T03:21:17.596Z,30.33
2019-01-25T03:23:49.389Z,29.53
2019-01-25T03:26:21.349Z,31.20
2019-01-25T03:28:53.286Z,30.77
2019-01-25T03:31:25.061Z,32.23
2019-01-25T03:33:56.827Z,30.60
2019-01-25T03:36:28.657Z,28.60
2019-01-25T03:39:00.672Z,30.30
2019-01-25T03:41:32.636Z,27.40
2019-01-25T03:44:04.889Z,29.80
2019-01-25T03:46:36.708Z,30.73
2019-01-25T03:49:08.502Z,30.87
2019-01-25T03:51:40.438Z,30.17
2019-01-25T03:54:12.222Z,28.03
2019-01-25T03:56:44.017Z,30.20
2019-01-25T03:59:15.922Z,30.33
2019-01-25T04:01:47.877Z,31.30
2019-01-25T04:04:19.717Z,30.30
2019-01-25T04:06:51.546Z,30.07
2019-01-25T04:09:23.557Z,30.93
2019-01-25T04:11:55.511Z,30.63
2019-01-25T04:14:27.305Z,30.77
2019-01-25T04:16:59.135Z,29.63
2019-01-25T04:19:30.921Z,31.33
2019-01-25T04:22:02.747Z,30.97
2019-01-25T04:24:34.541Z,31.27
2019-01-25T04:27:06.642Z,31.10
2019-01-25T04:29:38.419Z,32.00
2019-01-25T04:32:10.247Z,31.33
2019-01-25T04:34:42.023Z,29.90
2019-01-25T04:37:13.840Z,30.17
2019-01-25T04:39:45.754Z,31.77
2019-01-25T04:42:17.537Z,32.33
2019-01-25T04:44:49.383Z,32.23
2019-01-25T04:47:29.496Z,34.20
2019-01-25T04:50:01.295Z,30.50
2019-01-25T04:52:33.385Z,30.30
2019-01-25T04:55:32.114Z,32.27
2019-01-25T04:58:22.477Z,31.17
2019-01-25T05:00:54.319Z,31.63
2019-01-25T05:03:26.275Z,31.47
2019-01-25T05:05:58.090Z,33.50
2019-01-25T05:08:30.020Z,32.67
2019-01-25T05:11:01.931Z,31.87
2019-01-25T05:13:33.858Z,31.07
2019-01-25T05:16:10.133Z,32.27
2019-01-25T05:18:42.030Z,29.27
2019-01-25T05:21:23.266Z,29.30
2019-01-25T05:23:55.312Z,32.53
2019-01-25T05:26:27.174Z,30.63
2019-01-25T05:28:58.998Z,29.33
2019-01-25T05:31:31.244Z,29.23
2019-01-25T05:34:03.055Z,30.97
2019-01-25T05:36:35.170Z,28.33
2019-01-25T05:39:09.517Z,33.43
2019-01-25T05:41:41.348Z,31.83
2019-01-25T05:44:13.177Z,29.90
2019-01-25T05:46:44.992Z,29.53
2019-01-25T05:49:18.407Z,28.97
2019-01-25T05:51:50.405Z,27.37
2019-01-25T05:54:22.397Z,30.17
2019-01-25T05:56:54.228Z,28.77
2019-01-25T05:59:26.202Z,27.03
2019-01-25T06:01:58.025Z,25.47
2019-01-25T06:04:36.377Z,42.67
2019-01-25T06:07:08.573Z,31.37
2019-01-25T06:09:40.394Z,31.03
2019-01-25T06:12:12.217Z,28.57
2019-01-25T06:14:44.361Z,28.00
2019-01-25T06:17:16.201Z,27.43
2019-01-25T06:19:48.007Z,29.23
2019-01-25T06:22:19.856Z,30.10
2019-01-25T06:24:51.984Z,26.17
2019-01-25T06:27:23.938Z,24.83
2019-01-25T06:29:55.725Z,26.67
2019-01-25T06:32:27.915Z,26.30
2019-01-25T06:34:59.844Z,28.60
2019-01-25T06:37:31.655Z,28.57
2019-01-25T06:40:03.768Z,25.53
2019-01-25T06:42:35.549Z,26.23
2019-01-25T06:45:08.654Z,27.70
2019-01-25T06:47:40.684Z,28.30
2019-01-25T06:50:12.693Z,29.60
2019-01-25T06:52:44.494Z,28.30
2019-01-25T06:55:16.309Z,27.17
2019-01-25T06:57:55.112Z,28.27
2019-01-25T07:00:29.162Z,28.20
2019-01-25T07:03:00.964Z,26.90
2019-01-25T07:05:33.021Z,28.03
2019-01-25T07:08:05.121Z,31.40
2019-01-25T07:10:37.120Z,30.37
2019-01-25T07:13:20.511Z,30.30
2019-01-25T07:15:53.004Z,28.17
2019-01-25T07:18:24.831Z,28.50
2019-01-25T07:20:56.803Z,27.87
2019-01-25T07:23:30.044Z,29.17
2019-01-25T07:26:02.158Z,44.55
2019-01-25T07:28:33.943Z,35.37
2019-01-25T07:31:06.098Z,29.13
2019-01-25T07:33:37.882Z,30.40
2019-01-25T07:36:09.987Z,30.50
2019-01-25T07:38:41.821Z,27.20
2019-01-25T07:41:13.605Z,27.30
2019-01-25T07:43:45.442Z,25.00
2019-01-25T07:46:17.245Z,29.27
2019-01-25T07:48:49.357Z,27.90
2019-01-25T07:51:21.416Z,29.00
2019-01-25T07:53:53.356Z,28.30
2019-01-25T07:56:25.335Z,27.93
2019-01-25T07:58:57.379Z,29.50
2019-01-25T08:01:29.343Z,27.57
2019-01-25T08:04:01.185Z,29.37
2019-01-25T08:06:33.354Z,28.47
2019-01-25T08:09:08.583Z,28.43
2019-01-25T08:11:40.530Z,29.63
2019-01-25T08:14:12.912Z,31.20
2019-01-25T08:16:45.283Z,30.03
2019-01-25T08:19:17.385Z,29.83
2019-01-25T08:21:54.771Z,30.67
2019-01-25T08:24:30.910Z,29.40
2019-01-25T08:27:13.326Z,31.30
2019-01-25T08:29:50.409Z,31.40
2019-01-25T08:32:26.978Z,30.07
2019-01-25T08:35:06.223Z,29.67
2019-01-25T08:37:41.999Z,32.77
2019-01-25T08:40:25.245Z,31.50
2019-01-25T08:43:01.144Z,31.93
2019-01-25T08:45:34.514Z,30.03
2019-01-25T08:48:08.075Z,30.13
2019-01-25T08:50:43.477Z,30.10
2019-01-25T08:53:25.530Z,29.80
2019-01-25T08:55:57.458Z,29.97
2019-01-25T08:58:42.894Z,31.60
2019-01-25T09:01:16.664Z,29.40
2019-01-25T09:03:48.578Z,28.30
2019-01-25T09:06:27.231Z,31.37
2019-01-25T09:09:00.504Z,32.00
2019-01-25T09:11:35.307Z,33.67
2019-01-25T09:14:11.168Z,33.37
2019-01-25T09:16:44.440Z,31.67
2019-01-25T09:19:21.216Z,32.10
2019-01-25T09:22:05.990Z,32.37
2019-01-25T09:24:40.482Z,32.07
2019-01-25T09:27:14.901Z,31.90
2019-01-25T09:29:47.859Z,36.63
2019-01-25T09:32:21.416Z,36.10
2019-01-25T09:35:04.062Z,33.23
2019-01-25T09:37:43.616Z,34.13
2019-01-25T09:40:27.137Z,35.50
2019-01-25T09:43:03.120Z,33.93
2019-01-25T09:45:37.976Z,34.97
2019-01-25T09:48:13.110Z,36.07
2019-01-25T09:50:52.663Z,36.73
2019-01-25T09:53:26.918Z,34.83
2019-01-25T09:56:06.761Z,35.70
2019-01-25T09:58:48.836Z,35.77
2019-01-25T10:01:23.704Z,35.13
2019-01-25T10:03:55.790Z,36.60
2019-01-25T10:06:29.301Z,35.80
2019-01-25T10:09:01.252Z,38.47
2019-01-25T10:11:39.259Z,36.80
2019-01-25T10:14:15.967Z,61.15
2019-01-25T10:17:02.216Z,55.05
2019-01-25T10:19:38.725Z,41.23
2019-01-25T10:22:11.705Z,37.50
2019-01-25T10:24:47.959Z,39.77
2019-01-25T10:27:21.931Z,36.90
2019-01-25T10:30:00.626Z,35.07
2019-01-25T10:32:35.339Z,35.83
2019-01-25T10:35:29.150Z,35.13
2019-01-25T10:38:10.001Z,57.15
2019-01-25T10:40:47.065Z,40.13
2019-01-25T10:43:19.157Z,38.60
2019-01-25T10:45:57.720Z,36.87
2019-01-25T10:48:29.642Z,36.50
2019-01-25T10:51:08.692Z,35.47
2019-01-25T10:53:43.232Z,35.33
2019-01-25T10:56:17.488Z,38.27
2019-01-25T10:58:49.488Z,37.30
2019-01-25T11:01:21.807Z,35.47
2019-01-25T11:03:56.380Z,35.67
2019-01-25T11:06:30.336Z,34.03
2019-01-25T11:09:08.158Z,59.05
2019-01-25T11:11:40.224Z,38.83
2019-01-25T11:14:12.376Z,35.03
2019-01-25T11:16:45.789Z,36.40
2019-01-25T11:19:17.989Z,51.40
2019-01-25T11:21:55.542Z,34.60
2019-01-25T11:24:28.785Z,34.47
2019-01-25T11:27:03.295Z,53.37
2019-01-25T11:29:40.038Z,34.30
2019-01-25T11:32:11.953Z,31.40
2019-01-25T11:34:50.671Z,30.37
2019-01-25T11:37:22.506Z,29.50
2019-01-25T11:39:54.356Z,27.77
2019-01-25T11:42:27.923Z,27.53
2019-01-25T11:44:59.935Z,29.27
2019-01-25T11:47:31.776Z,27.93
2019-01-25T11:50:04.094Z,28.47
2019-01-25T11:52:36.054Z,26.07
2019-01-25T11:55:10.266Z,27.43
2019-01-25T11:57:46.147Z,25.90
2019-01-25T12:00:24.288Z,22.73
2019-01-25T12:02:56.259Z,22.80
2019-01-25T12:08:23.078Z,24.20
2019-01-25T12:10:55.131Z,21.93
2019-01-25T12:13:27.214Z,22.13
2019-01-25T12:15:59.384Z,21.97
2019-01-25T12:18:31.572Z,19.53
2019-01-25T12:21:03.551Z,17.13
2019-01-25T12:23:35.508Z,15.73
2019-01-25T12:26:07.645Z,15.10
2019-01-25T12:28:39.570Z,13.43
2019-01-25T12:31:11.447Z,15.40
2019-01-25T12:33:43.498Z,14.73
2019-01-25T12:36:15.418Z,14.20
2019-01-25T12:38:47.327Z,13.77
2019-01-25T12:41:19.174Z,13.43
2019-01-25T12:43:52.654Z,15.00
2019-01-25T12:46:24.814Z,13.07
2019-01-25T12:48:57.862Z,12.97
2019-01-25T12:51:52.958Z,13.13
2019-01-25T12:54:25.063Z,13.63
2019-01-25T12:56:57.313Z,16.87
2019-01-25T12:59:29.416Z,14.20
2019-01-25T13:02:01.604Z,13.63
2019-01-25T13:04:36.680Z,13.10
2019-01-25T13:07:17.991Z,13.10
2019-01-25T13:09:51.597Z,20.67
2019-01-25T13:12:26.318Z,15.10
2019-01-25T13:15:06.893Z,13.27
2019-01-25T13:17:40.265Z,12.33
2019-01-25T13:20:20.924Z,11.97
2019-01-25T13:22:54.564Z,12.73
2019-01-25T13:25:30.915Z,12.97
2019-01-25T13:28:02.895Z,11.27
2019-01-25T13:30:35.041Z,12.43
2019-01-25T13:33:07.182Z,12.67
2019-01-25T13:35:39.320Z,12.67
2019-01-25T13:38:11.337Z,12.23
2019-01-25T13:40:43.521Z,11.97
2019-01-25T13:43:15.457Z,11.83
2019-01-25T13:45:48.794Z,12.23
2019-01-25T13:48:20.955Z,16.60
2019-01-25T13:50:53.094Z,13.10
2019-01-25T13:53:27.952Z,11.73
2019-01-25T13:55:59.818Z,11.23
2019-01-25T13:58:34.734Z,11.10
2019-01-25T14:01:06.731Z,10.70
2019-01-25T14:03:38.619Z,10.73
2019-01-25T14:06:10.662Z,11.10
2019-01-25T14:08:45.873Z,10.43
2019-01-25T14:11:17.985Z,10.30
2019-01-25T14:13:50.149Z,9.87
2019-01-25T14:16:22.242Z,9.97
2019-01-25T14:18:54.199Z,10.50
2019-01-25T14:21:26.326Z,14.50
2019-01-25T14:23:58.293Z,10.13
2019-01-25T14:26:30.449Z,9.50
2019-01-25T14:29:02.958Z,13.53
2019-01-25T14:31:34.905Z,10.00
2019-01-25T14:34:08.295Z,9.37
2019-01-25T14:36:40.160Z,8.57
2019-01-25T14:39:12.173Z,8.60
2019-01-25T14:41:44.216Z,8.70
2019-01-25T14:44:16.269Z,8.00
2019-01-25T14:46:48.107Z,8.90
2019-01-25T14:49:21.736Z,8.33
2019-01-25T14:51:53.976Z,8.13
2019-01-25T14:54:25.810Z,8.40
2019-01-25T14:56:59.593Z,8.83
2019-01-25T14:59:31.721Z,8.10
2019-01-25T15:02:03.644Z,8.37
2019-01-25T15:04:35.525Z,8.07
2019-01-25T15:07:07.528Z,7.70
2019-01-25T15:09:40.967Z,8.80
2019-01-25T15:12:13.045Z,7.63
2019-01-25T15:14:45.144Z,8.17
2019-01-25T15:17:17.371Z,7.70
2019-01-25T15:19:49.255Z,8.07
2019-01-25T15:22:21.147Z,8.17
2019-01-25T15:24:53.161Z,8.43
2019-01-25T15:27:31.109Z,8.93
2019-01-25T15:30:04.171Z,8.50
2019-01-25T15:32:37.635Z,7.87
2019-01-25T15:35:12.091Z,7.70
2019-01-25T15:37:44.438Z,8.47
2019-01-25T15:40:17.420Z,7.50
2019-01-25T15:42:49.424Z,7.47
2019-01-25T15:45:21.973Z,7.80
2019-01-25T15:47:54.229Z,8.83
2019-01-25T15:50:32.098Z,7.57
2019-01-25T15:53:04.138Z,7.97
2019-01-25T15:55:36.735Z,8.60
2019-01-25T15:58:08.870Z,8.07
2019-01-25T16:00:40.784Z,7.87
2019-01-25T16:03:12.636Z,7.70
2019-01-25T16:05:44.563Z,7.80
2019-01-25T16:08:16.429Z,8.17
2019-01-25T16:10:48.410Z,8.30
2019-01-25T16:13:20.297Z,7.70
2019-01-25T16:15:52.306Z,7.37
2019-01-25T16:18:24.571Z,13.37
2019-01-25T16:20:56.733Z,8.73
2019-01-25T16:23:28.777Z,8.10
2019-01-25T16:26:00.924Z,7.60
2019-01-25T16:28:32.987Z,7.83
2019-01-25T16:31:05.192Z,8.07
2019-01-25T16:33:37.426Z,8.73
2019-01-25T16:36:09.641Z,8.63
2019-01-25T16:38:41.977Z,8.73
2019-01-25T16:41:13.960Z,9.23
2019-01-25T16:43:46.315Z,9.47
2019-01-25T16:46:18.518Z,9.87
2019-01-25T16:48:51.405Z,9.03
2019-01-25T16:51:24.017Z,9.97
2019-01-25T16:53:56.020Z,9.50
2019-01-25T16:56:27.923Z,9.70
2019-01-25T16:58:59.962Z,9.70
2019-01-25T17:01:32.140Z,9.90
2019-01-25T17:04:05.078Z,10.43
2019-01-25T17:06:37.004Z,9.47
2019-01-25T17:09:12.839Z,11.00
2019-01-25T17:11:44.730Z,9.80
2019-01-25T17:14:16.790Z,10.67
2019-01-25T17:16:48.825Z,10.87
2019-01-25T17:19:20.735Z,10.43
2019-01-25T17:21:52.605Z,10.93
2019-01-25T17:24:24.628Z,11.27
2019-01-25T17:26:56.517Z,10.93
2019-01-25T17:29:28.341Z,12.07
2019-01-25T17:32:00.315Z,12.10
2019-01-25T17:34:32.640Z,11.87
2019-01-25T17:37:04.645Z,11.53
2019-01-25T17:39:36.746Z,10.53
2019-01-25T17:42:08.933Z,11.43
2019-01-25T17:44:41.479Z,10.63
2019-01-25T17:47:15.233Z,11.73
2019-01-25T17:49:47.430Z,11.53
2019-01-25T17:52:21.599Z,10.53
2019-01-25T17:54:55.039Z,11.27
2019-01-25T17:57:30.479Z,10.20
2019-01-25T18:00:02.351Z,10.73
2019-01-25T18:02:34.618Z,11.83
2019-01-25T18:05:07.174Z,11.07
2019-01-25T18:07:39.024Z,11.43
2019-01-25T18:10:14.974Z,11.00
2019-01-25T18:12:48.328Z,9.93
2019-01-25T18:15:22.799Z,10.23
2019-01-25T18:17:54.798Z,9.87
2019-01-25T18:20:26.753Z,10.30
2019-01-25T18:22:58.861Z,8.80
2019-01-25T18:25:58.886Z,9.30
2019-01-25T18:28:39.897Z,9.77
2019-01-25T18:31:21.447Z,9.47
2019-01-25T18:33:53.678Z,9.40
2019-01-25T18:36:25.700Z,10.03
2019-01-25T18:39:00.688Z,9.53
2019-01-25T18:41:32.852Z,9.50
2019-01-25T18:44:09.462Z,8.97
2019-01-25T18:46:42.929Z,9.20
2019-01-25T18:49:14.842Z,9.47
2019-01-25T18:51:47.180Z,8.77
2019-01-25T18:54:19.199Z,9.60
2019-01-25T18:56:53.144Z,9.00
2019-01-25T18:59:25.150Z,9.03
2019-01-25T19:02:02.146Z,9.90
2019-01-25T19:04:34.167Z,8.63
2019-01-25T19:07:06.155Z,9.77
2019-01-25T19:09:39.302Z,9.43
2019-01-25T19:12:16.995Z,8.97
2019-01-25T19:14:49.022Z,9.80
2019-01-25T19:17:21.129Z,8.17
2019-01-25T19:19:53.309Z,8.87
2019-01-25T19:22:28.577Z,8.73
2019-01-25T19:25:00.632Z,9.17
2019-01-25T19:27:32.680Z,9.13
2019-01-25T19:30:06.498Z,8.83
2019-01-25T19:32:38.479Z,8.60
2019-01-25T19:35:12.990Z,8.73
2019-01-25T19:37:44.945Z,8.87
2019-01-25T19:40:18.492Z,8.23
2019-01-25T19:42:50.587Z,8.40
2019-01-25T19:45:23.085Z,8.17
2019-01-25T19:47:55.060Z,8.40
2019-01-25T19:50:27.530Z,8.70
2019-01-25T19:52:59.696Z,8.43
2019-01-25T19:55:32.014Z,7.33
2019-01-25T19:58:06.964Z,8.30
2019-01-25T20:00:41.201Z,7.33
2019-01-25T20:03:13.549Z,7.87
2019-01-25T20:05:47.303Z,8.07
2019-01-25T20:08:19.291Z,7.37
2019-01-25T20:10:51.533Z,6.97
2019-01-25T20:13:23.398Z,7.73
2019-01-25T20:15:55.498Z,7.17
2019-01-25T20:18:27.400Z,7.67
2019-01-25T20:20:59.521Z,6.70
2019-01-25T20:23:31.543Z,7.20
2019-01-25T20:26:03.906Z,7.97
2019-01-25T20:28:38.705Z,7.90
2019-01-25T20:31:15.702Z,8.70
2019-01-25T20:33:49.976Z,8.13
2019-01-25T20:36:22.315Z,7.73
2019-01-25T20:38:55.708Z,7.50
2019-01-25T20:41:27.631Z,7.80
2019-01-25T20:43:59.732Z,7.73
2019-01-25T20:46:31.728Z,8.47
2019-01-25T20:49:03.863Z,8.73
2019-01-25T20:51:35.797Z,8.47
2019-01-25T20:54:08.133Z,8.03
2019-01-25T20:56:40.263Z,9.33
2019-01-25T20:59:12.346Z,8.60
2019-01-25T21:01:44.437Z,8.07
2019-01-25T21:04:16.688Z,7.97
2019-01-25T21:06:50.403Z,8.20
2019-01-25T21:09:22.344Z,9.43
2019-01-25T21:11:54.415Z,8.63
2019-01-25T21:14:26.864Z,9.30
2019-01-25T21:16:58.908Z,8.60
2019-01-25T21:19:31.116Z,7.77
2019-01-25T21:22:03.064Z,7.50
2019-01-25T21:24:34.930Z,8.63
2019-01-25T21:27:07.030Z,7.97
2019-01-25T21:29:39.048Z,7.40
2019-01-25T21:32:11.131Z,7.10
2019-01-25T21:34:43.521Z,7.23
2019-01-25T21:37:15.598Z,7.83
2019-01-25T21:39:50.184Z,7.40
2019-01-25T21:42:22.275Z,6.97
2019-01-25T21:44:54.246Z,6.90
2019-01-25T21:47:26.084Z,7.03
2019-01-25T21:49:58.339Z,7.20
2019-01-25T21:52:30.631Z,7.53
2019-01-25T21:55:02.683Z,6.90
2019-01-25T21:57:34.858Z,6.67
2019-01-25T22:00:18.847Z,7.30
2019-01-25T22:02:51.048Z,6.73
2019-01-25T22:05:23.240Z,7.77
2019-01-25T22:07:55.270Z,7.00
2019-01-25T22:10:40.417Z,6.83
2019-01-25T22:13:12.332Z,7.23
2019-01-25T22:15:50.730Z,6.30
2019-01-25T22:18:18.234Z,7.00
2019-01-25T22:20:50.271Z,8.43
2019-01-25T22:23:22.407Z,6.93
2019-01-25T22:25:54.588Z,7.20
2019-01-25T22:28:26.465Z,6.87
2019-01-25T22:30:58.568Z,7.43
2019-01-25T22:33:30.455Z,7.53
2019-01-25T22:36:02.365Z,6.80
2019-01-25T22:38:34.235Z,6.53
2019-01-25T22:41:06.188Z,7.83
2019-01-25T22:43:38.027Z,7.00
2019-01-25T22:46:09.838Z,7.17
2019-01-25T22:48:41.931Z,7.87
2019-01-25T22:51:13.808Z,7.67
2019-01-25T22:53:45.650Z,7.37
2019-01-25T22:56:17.594Z,8.73
2019-01-25T22:58:49.609Z,8.03
2019-01-25T23:01:33.831Z,9.47
2019-01-25T23:04:52.463Z,9.03
2019-01-25T23:07:30.889Z,9.73
2019-01-25T23:10:16.148Z,10.03
2019-01-25T23:12:48.214Z,9.83
2019-01-25T23:15:20.754Z,9.67
2019-01-25T23:17:52.821Z,10.10
2019-01-25T23:20:24.785Z,9.07
2019-01-25T23:22:56.760Z,10.50
2019-01-25T23:25:28.610Z,11.47
2019-01-25T23:28:00.465Z,11.00
2019-01-25T23:30:32.549Z,11.00
2019-01-25T23:33:04.548Z,11.63
2019-01-25T23:35:36.652Z,11.43
2019-01-25T23:38:08.558Z,11.27
2019-01-25T23:40:40.567Z,11.70
2019-01-25T23:43:12.441Z,11.43
2019-01-25T23:45:44.330Z,11.87
2019-01-25T23:48:16.346Z,11.20
2019-01-25T23:50:48.373Z,12.10
2019-01-25T23:53:20.343Z,11.80
2019-01-25T23:55:52.189Z,11.93
2019-01-25T23:58:24.125Z,12.47
